sensor_id;sensor_type;location;lat;lon;timestamp;P1;durP1;ratioP1;P2;durP2;ratioP2
42682;SDS011;28293;50.930;3.464;2023-07-13T00:01:26;16.83;;;4.45;;
42682;SDS011;28293;50.930;3.464;2023-07-13T00:03:53;14.82;;;3.90;;
42682;SDS011;28293;50.930;3.464;2023-07-13T00:06:19;13.32;;;3.63;;
42682;SDS011;28293;50.930;3.464;2023-07-13T00:08:45;17.27;;;4.40;;
42682;SDS011;28293;50.930;3.464;2023-07-13T00:11:12;16.95;;;3.67;;
42682;SDS011;28293;50.930;3.464;2023-07-13T00:13:39;16.80;;;4.72;;
42682;SDS011;28293;50.930;3.464;2023-07-13T00:16:06;15.63;;;3.60;;
42682;SDS011;28293;50.930;3.464;2023-07-13T00:18:32;16.92;;;3.90;;
42682;SDS011;28293;50.930;3.464;2023-07-13T00:20:58;15.27;;;4.18;;
42682;SDS011;28293;50.930;3.464;2023-07-13T00:23:39;17.27;;;3.95;;
42682;SDS011;28293;50.930;3.464;2023-07-13T00:26:06;14.38;;;3.88;;
42682;SDS011;28293;50.930;3.464;2023-07-13T00:28:33;19.80;;;3.88;;
42682;SDS011;28293;50.930;3.464;2023-07-13T00:31:00;18.42;;;3.75;;
42682;SDS011;28293;50.930;3.464;2023-07-13T00:33:27;16.63;;;4.60;;
42682;SDS011;28293;50.930;3.464;2023-07-13T00:35:54;16.42;;;4.35;;
42682;SDS011;28293;50.930;3.464;2023-07-13T00:38:20;16.52;;;4.57;;
42682;SDS011;28293;50.930;3.464;2023-07-13T00:40:46;12.95;;;3.67;;
42682;SDS011;28293;50.930;3.464;2023-07-13T00:43:19;15.30;;;3.97;;
42682;SDS011;28293;50.930;3.464;2023-07-13T00:48:17;14.40;;;3.60;;
42682;SDS011;28293;50.930;3.464;2023-07-13T00:50:46;14.93;;;3.95;;
42682;SDS011;28293;50.930;3.464;2023-07-13T00:53:15;15.77;;;4.53;;
42682;SDS011;28293;50.930;3.464;2023-07-13T00:55:42;18.38;;;4.57;;
42682;SDS011;28293;50.930;3.464;2023-07-13T00:58:08;21.00;;;4.63;;
42682;SDS011;28293;50.930;3.464;2023-07-13T01:00:35;17.02;;;4.95;;
42682;SDS011;28293;50.930;3.464;2023-07-13T01:03:03;17.52;;;4.60;;
42682;SDS011;28293;50.930;3.464;2023-07-13T01:05:29;17.58;;;4.60;;
42682;SDS011;28293;50.930;3.464;2023-07-13T01:07:57;18.38;;;4.97;;
42682;SDS011;28293;50.930;3.464;2023-07-13T01:10:25;16.75;;;4.47;;
42682;SDS011;28293;50.930;3.464;2023-07-13T01:12:51;22.65;;;4.25;;
42682;SDS011;28293;50.930;3.464;2023-07-13T01:18:11;19.15;;;4.85;;
42682;SDS011;28293;50.930;3.464;2023-07-13T01:21:00;19.10;;;5.10;;
42682;SDS011;28293;50.930;3.464;2023-07-13T01:23:28;17.42;;;5.15;;
42682;SDS011;28293;50.930;3.464;2023-07-13T01:25:55;15.05;;;4.80;;
42682;SDS011;28293;50.930;3.464;2023-07-13T01:28:22;18.35;;;5.22;;
42682;SDS011;28293;50.930;3.464;2023-07-13T01:30:52;18.63;;;4.55;;
42682;SDS011;28293;50.930;3.464;2023-07-13T01:33:19;16.70;;;5.18;;
42682;SDS011;28293;50.930;3.464;2023-07-13T01:35:45;16.20;;;4.70;;
42682;SDS011;28293;50.930;3.464;2023-07-13T01:38:12;16.20;;;4.13;;
42682;SDS011;28293;50.930;3.464;2023-07-13T01:40:43;20.70;;;5.03;;
42682;SDS011;28293;50.930;3.464;2023-07-13T01:43:09;16.40;;;5.10;;
42682;SDS011;28293;50.930;3.464;2023-07-13T01:45:35;15.57;;;5.38;;
42682;SDS011;28293;50.930;3.464;2023-07-13T01:48:01;15.23;;;4.80;;
42682;SDS011;28293;50.930;3.464;2023-07-13T01:50:26;16.17;;;4.78;;
42682;SDS011;28293;50.930;3.464;2023-07-13T01:52:52;19.10;;;5.45;;
42682;SDS011;28293;50.930;3.464;2023-07-13T01:55:18;18.83;;;5.28;;
42682;SDS011;28293;50.930;3.464;2023-07-13T01:57:45;18.65;;;5.65;;
42682;SDS011;28293;50.930;3.464;2023-07-13T02:00:13;18.67;;;5.28;;
42682;SDS011;28293;50.930;3.464;2023-07-13T02:02:39;17.27;;;5.13;;
42682;SDS011;28293;50.930;3.464;2023-07-13T02:05:05;20.45;;;5.38;;
42682;SDS011;28293;50.930;3.464;2023-07-13T02:07:31;17.70;;;5.50;;
42682;SDS011;28293;50.930;3.464;2023-07-13T02:09:57;18.25;;;5.78;;
42682;SDS011;28293;50.930;3.464;2023-07-13T02:12:22;17.50;;;5.03;;
42682;SDS011;28293;50.930;3.464;2023-07-13T02:14:48;14.18;;;5.80;;
42682;SDS011;28293;50.930;3.464;2023-07-13T02:17:14;19.30;;;5.95;;
42682;SDS011;28293;50.930;3.464;2023-07-13T02:19:39;18.27;;;7.18;;
42682;SDS011;28293;50.930;3.464;2023-07-13T02:22:05;18.52;;;6.10;;
42682;SDS011;28293;50.930;3.464;2023-07-13T02:24:31;15.82;;;6.00;;
42682;SDS011;28293;50.930;3.464;2023-07-13T02:26:57;18.58;;;6.13;;
42682;SDS011;28293;50.930;3.464;2023-07-13T02:29:23;20.10;;;6.30;;
42682;SDS011;28293;50.930;3.464;2023-07-13T02:31:49;20.60;;;6.28;;
42682;SDS011;28293;50.930;3.464;2023-07-13T02:34:14;17.35;;;5.95;;
42682;SDS011;28293;50.930;3.464;2023-07-13T02:36:40;17.95;;;5.45;;
42682;SDS011;28293;50.930;3.464;2023-07-13T02:39:06;21.20;;;5.28;;
42682;SDS011;28293;50.930;3.464;2023-07-13T02:41:32;18.75;;;5.28;;
42682;SDS011;28293;50.930;3.464;2023-07-13T02:43:58;14.43;;;4.72;;
42682;SDS011;28293;50.930;3.464;2023-07-13T02:46:37;20.52;;;5.60;;
42682;SDS011;28293;50.930;3.464;2023-07-13T02:49:03;14.57;;;4.68;;
42682;SDS011;28293;50.930;3.464;2023-07-13T02:51:29;17.38;;;5.65;;
42682;SDS011;28293;50.930;3.464;2023-07-13T02:53:55;19.45;;;4.97;;
42682;SDS011;28293;50.930;3.464;2023-07-13T02:56:25;14.85;;;5.20;;
42682;SDS011;28293;50.930;3.464;2023-07-13T02:58:52;22.92;;;5.47;;
42682;SDS011;28293;50.930;3.464;2023-07-13T03:01:19;19.42;;;5.10;;
42682;SDS011;28293;50.930;3.464;2023-07-13T03:03:46;14.07;;;5.00;;
42682;SDS011;28293;50.930;3.464;2023-07-13T03:06:12;18.40;;;5.63;;
42682;SDS011;28293;50.930;3.464;2023-07-13T03:08:39;18.73;;;5.55;;
42682;SDS011;28293;50.930;3.464;2023-07-13T03:11:15;19.38;;;5.93;;
42682;SDS011;28293;50.930;3.464;2023-07-13T03:13:43;20.38;;;5.30;;
42682;SDS011;28293;50.930;3.464;2023-07-13T03:16:09;19.70;;;5.57;;
42682;SDS011;28293;50.930;3.464;2023-07-13T03:18:36;17.52;;;5.10;;
42682;SDS011;28293;50.930;3.464;2023-07-13T03:21:03;18.92;;;5.72;;
42682;SDS011;28293;50.930;3.464;2023-07-13T03:23:29;16.77;;;5.20;;
42682;SDS011;28293;50.930;3.464;2023-07-13T03:28:50;19.48;;;5.07;;
42682;SDS011;28293;50.930;3.464;2023-07-13T03:31:17;18.80;;;4.55;;
42682;SDS011;28293;50.930;3.464;2023-07-13T03:33:44;19.77;;;4.90;;
42682;SDS011;28293;50.930;3.464;2023-07-13T03:36:13;19.13;;;5.07;;
42682;SDS011;28293;50.930;3.464;2023-07-13T03:38:43;14.40;;;5.05;;
42682;SDS011;28293;50.930;3.464;2023-07-13T03:41:11;14.57;;;5.15;;
42682;SDS011;28293;50.930;3.464;2023-07-13T03:43:37;22.65;;;5.10;;
42682;SDS011;28293;50.930;3.464;2023-07-13T03:46:02;18.10;;;5.22;;
42682;SDS011;28293;50.930;3.464;2023-07-13T03:48:28;18.95;;;5.55;;
42682;SDS011;28293;50.930;3.464;2023-07-13T03:50:54;17.92;;;5.53;;
42682;SDS011;28293;50.930;3.464;2023-07-13T03:53:19;16.30;;;4.63;;
42682;SDS011;28293;50.930;3.464;2023-07-13T03:55:45;19.38;;;4.97;;
42682;SDS011;28293;50.930;3.464;2023-07-13T03:58:28;17.38;;;4.50;;
42682;SDS011;28293;50.930;3.464;2023-07-13T04:00:59;18.88;;;5.20;;
42682;SDS011;28293;50.930;3.464;2023-07-13T04:03:25;14.45;;;5.07;;
42682;SDS011;28293;50.930;3.464;2023-07-13T04:05:53;16.38;;;4.40;;
42682;SDS011;28293;50.930;3.464;2023-07-13T04:08:28;19.40;;;5.07;;
42682;SDS011;28293;50.930;3.464;2023-07-13T04:10:55;18.80;;;5.55;;
42682;SDS011;28293;50.930;3.464;2023-07-13T04:13:21;14.10;;;4.53;;
42682;SDS011;28293;50.930;3.464;2023-07-13T04:15:46;17.17;;;4.97;;
42682;SDS011;28293;50.930;3.464;2023-07-13T04:18:12;19.13;;;4.78;;
42682;SDS011;28293;50.930;3.464;2023-07-13T04:20:38;15.07;;;4.50;;
42682;SDS011;28293;50.930;3.464;2023-07-13T04:23:03;23.48;;;5.60;;
42682;SDS011;28293;50.930;3.464;2023-07-13T04:25:29;19.38;;;4.57;;
42682;SDS011;28293;50.930;3.464;2023-07-13T04:27:55;17.27;;;5.03;;
42682;SDS011;28293;50.930;3.464;2023-07-13T04:30:21;15.75;;;4.75;;
42682;SDS011;28293;50.930;3.464;2023-07-13T04:32:47;18.88;;;4.95;;
42682;SDS011;28293;50.930;3.464;2023-07-13T04:35:14;13.30;;;4.50;;
42682;SDS011;28293;50.930;3.464;2023-07-13T04:37:40;14.73;;;4.60;;
42682;SDS011;28293;50.930;3.464;2023-07-13T04:40:06;16.17;;;4.82;;
42682;SDS011;28293;50.930;3.464;2023-07-13T04:42:36;12.93;;;4.43;;
42682;SDS011;28293;50.930;3.464;2023-07-13T04:45:02;19.65;;;5.63;;
42682;SDS011;28293;50.930;3.464;2023-07-13T04:47:29;17.02;;;4.65;;
42682;SDS011;28293;50.930;3.464;2023-07-13T04:49:55;17.30;;;4.93;;
42682;SDS011;28293;50.930;3.464;2023-07-13T04:52:22;14.80;;;4.20;;
42682;SDS011;28293;50.930;3.464;2023-07-13T04:54:48;18.98;;;4.65;;
42682;SDS011;28293;50.930;3.464;2023-07-13T04:57:14;19.30;;;5.93;;
42682;SDS011;28293;50.930;3.464;2023-07-13T04:59:39;19.58;;;5.53;;
42682;SDS011;28293;50.930;3.464;2023-07-13T05:02:05;26.25;;;6.15;;
42682;SDS011;28293;50.930;3.464;2023-07-13T05:04:31;19.77;;;5.22;;
42682;SDS011;28293;50.930;3.464;2023-07-13T05:06:57;22.50;;;5.18;;
42682;SDS011;28293;50.930;3.464;2023-07-13T05:09:22;18.77;;;5.35;;
42682;SDS011;28293;50.930;3.464;2023-07-13T05:11:48;15.15;;;4.38;;
42682;SDS011;28293;50.930;3.464;2023-07-13T05:14:14;15.75;;;5.35;;
42682;SDS011;28293;50.930;3.464;2023-07-13T05:16:41;18.55;;;5.55;;
42682;SDS011;28293;50.930;3.464;2023-07-13T05:19:07;22.88;;;5.95;;
42682;SDS011;28293;50.930;3.464;2023-07-13T05:21:33;20.65;;;4.88;;
42682;SDS011;28293;50.930;3.464;2023-07-13T05:23:59;23.25;;;5.10;;
42682;SDS011;28293;50.930;3.464;2023-07-13T05:26:25;19.42;;;5.30;;
42682;SDS011;28293;50.930;3.464;2023-07-13T05:28:50;16.25;;;4.72;;
42682;SDS011;28293;50.930;3.464;2023-07-13T05:31:16;17.95;;;5.60;;
42682;SDS011;28293;50.930;3.464;2023-07-13T05:33:42;20.95;;;5.57;;
42682;SDS011;28293;50.930;3.464;2023-07-13T05:36:08;15.35;;;4.43;;
42682;SDS011;28293;50.930;3.464;2023-07-13T05:38:33;17.00;;;5.28;;
42682;SDS011;28293;50.930;3.464;2023-07-13T05:40:59;18.13;;;5.65;;
42682;SDS011;28293;50.930;3.464;2023-07-13T05:43:25;17.77;;;5.13;;
42682;SDS011;28293;50.930;3.464;2023-07-13T05:45:52;18.17;;;5.53;;
42682;SDS011;28293;50.930;3.464;2023-07-13T05:48:19;17.52;;;5.05;;
42682;SDS011;28293;50.930;3.464;2023-07-13T05:50:44;20.08;;;5.15;;
42682;SDS011;28293;50.930;3.464;2023-07-13T05:53:11;21.90;;;5.40;;
42682;SDS011;28293;50.930;3.464;2023-07-13T05:55:40;15.48;;;4.50;;
42682;SDS011;28293;50.930;3.464;2023-07-13T05:58:07;17.38;;;4.82;;
42682;SDS011;28293;50.930;3.464;2023-07-13T06:00:33;14.82;;;4.97;;
42682;SDS011;28293;50.930;3.464;2023-07-13T06:02:58;18.90;;;5.65;;
42682;SDS011;28293;50.930;3.464;2023-07-13T06:05:24;17.10;;;5.38;;
42682;SDS011;28293;50.930;3.464;2023-07-13T06:07:50;17.27;;;5.32;;
42682;SDS011;28293;50.930;3.464;2023-07-13T06:10:16;13.40;;;4.30;;
42682;SDS011;28293;50.930;3.464;2023-07-13T06:12:41;16.42;;;4.70;;
42682;SDS011;28293;50.930;3.464;2023-07-13T06:15:08;15.80;;;5.18;;
42682;SDS011;28293;50.930;3.464;2023-07-13T06:17:33;15.70;;;4.70;;
42682;SDS011;28293;50.930;3.464;2023-07-13T06:19:59;18.15;;;4.28;;
42682;SDS011;28293;50.930;3.464;2023-07-13T06:22:25;14.93;;;4.78;;
42682;SDS011;28293;50.930;3.464;2023-07-13T06:24:51;15.10;;;5.35;;
42682;SDS011;28293;50.930;3.464;2023-07-13T06:27:17;18.40;;;5.15;;
42682;SDS011;28293;50.930;3.464;2023-07-13T06:29:42;19.48;;;5.40;;
42682;SDS011;28293;50.930;3.464;2023-07-13T06:32:10;17.77;;;4.95;;
42682;SDS011;28293;50.930;3.464;2023-07-13T06:34:35;16.02;;;5.18;;
42682;SDS011;28293;50.930;3.464;2023-07-13T06:37:01;15.48;;;5.10;;
42682;SDS011;28293;50.930;3.464;2023-07-13T06:39:27;20.23;;;6.18;;
42682;SDS011;28293;50.930;3.464;2023-07-13T06:41:53;16.35;;;5.63;;
42682;SDS011;28293;50.930;3.464;2023-07-13T06:44:18;19.48;;;5.63;;
42682;SDS011;28293;50.930;3.464;2023-07-13T06:46:44;19.42;;;5.82;;
42682;SDS011;28293;50.930;3.464;2023-07-13T06:49:10;17.75;;;5.57;;
42682;SDS011;28293;50.930;3.464;2023-07-13T06:51:35;14.77;;;5.03;;
42682;SDS011;28293;50.930;3.464;2023-07-13T06:54:01;18.55;;;5.45;;
42682;SDS011;28293;50.930;3.464;2023-07-13T06:56:27;19.13;;;5.90;;
42682;SDS011;28293;50.930;3.464;2023-07-13T06:58:52;24.05;;;6.30;;
42682;SDS011;28293;50.930;3.464;2023-07-13T07:01:18;17.13;;;5.03;;
42682;SDS011;28293;50.930;3.464;2023-07-13T07:03:43;16.33;;;5.65;;
42682;SDS011;28293;50.930;3.464;2023-07-13T07:06:19;14.80;;;5.05;;
42682;SDS011;28293;50.930;3.464;2023-07-13T07:08:46;14.48;;;5.40;;
42682;SDS011;28293;50.930;3.464;2023-07-13T07:11:12;15.80;;;5.05;;
42682;SDS011;28293;50.930;3.464;2023-07-13T07:13:39;17.00;;;5.10;;
42682;SDS011;28293;50.930;3.464;2023-07-13T07:16:05;22.15;;;5.53;;
42682;SDS011;28293;50.930;3.464;2023-07-13T07:18:31;15.05;;;4.95;;
42682;SDS011;28293;50.930;3.464;2023-07-13T07:20:57;17.27;;;5.75;;
42682;SDS011;28293;50.930;3.464;2023-07-13T07:23:23;14.77;;;4.55;;
42682;SDS011;28293;50.930;3.464;2023-07-13T07:25:49;17.45;;;4.72;;
42682;SDS011;28293;50.930;3.464;2023-07-13T07:28:15;16.92;;;4.80;;
42682;SDS011;28293;50.930;3.464;2023-07-13T07:30:47;19.50;;;5.05;;
42682;SDS011;28293;50.930;3.464;2023-07-13T07:33:14;14.82;;;4.13;;
42682;SDS011;28293;50.930;3.464;2023-07-13T07:35:41;12.52;;;4.50;;
42682;SDS011;28293;50.930;3.464;2023-07-13T07:38:08;22.33;;;5.45;;
42682;SDS011;28293;50.930;3.464;2023-07-13T07:40:36;21.35;;;5.68;;
42682;SDS011;28293;50.930;3.464;2023-07-13T07:43:06;14.20;;;4.60;;
42682;SDS011;28293;50.930;3.464;2023-07-13T07:45:32;14.30;;;4.57;;
42682;SDS011;28293;50.930;3.464;2023-07-13T07:47:57;13.35;;;4.47;;
42682;SDS011;28293;50.930;3.464;2023-07-13T07:50:24;16.10;;;5.28;;
42682;SDS011;28293;50.930;3.464;2023-07-13T07:52:50;16.35;;;4.40;;
42682;SDS011;28293;50.930;3.464;2023-07-13T07:55:16;17.02;;;5.22;;
42682;SDS011;28293;50.930;3.464;2023-07-13T07:57:42;15.25;;;4.82;;
42682;SDS011;28293;50.930;3.464;2023-07-13T08:00:08;17.80;;;5.13;;
42682;SDS011;28293;50.930;3.464;2023-07-13T08:02:34;9.27;;;3.58;;
42682;SDS011;28293;50.930;3.464;2023-07-13T08:05:00;15.77;;;4.65;;
42682;SDS011;28293;50.930;3.464;2023-07-13T08:07:25;12.98;;;4.53;;
42682;SDS011;28293;50.930;3.464;2023-07-13T08:09:52;15.95;;;4.05;;
42682;SDS011;28293;50.930;3.464;2023-07-13T08:12:18;13.88;;;4.03;;
42682;SDS011;28293;50.930;3.464;2023-07-13T08:14:43;14.13;;;4.13;;
42682;SDS011;28293;50.930;3.464;2023-07-13T08:17:09;15.85;;;4.20;;
42682;SDS011;28293;50.930;3.464;2023-07-13T08:19:35;14.63;;;4.35;;
42682;SDS011;28293;50.930;3.464;2023-07-13T08:22:00;11.60;;;4.10;;
42682;SDS011;28293;50.930;3.464;2023-07-13T08:24:26;12.65;;;4.28;;
42682;SDS011;28293;50.930;3.464;2023-07-13T08:26:52;14.23;;;4.05;;
42682;SDS011;28293;50.930;3.464;2023-07-13T08:29:17;11.38;;;3.78;;
42682;SDS011;28293;50.930;3.464;2023-07-13T08:31:43;14.77;;;4.40;;
42682;SDS011;28293;50.930;3.464;2023-07-13T08:34:09;14.02;;;4.38;;
42682;SDS011;28293;50.930;3.464;2023-07-13T08:36:35;9.18;;;3.65;;
42682;SDS011;28293;50.930;3.464;2023-07-13T08:39:02;11.23;;;3.58;;
42682;SDS011;28293;50.930;3.464;2023-07-13T08:41:27;13.00;;;4.25;;
42682;SDS011;28293;50.930;3.464;2023-07-13T08:43:56;9.43;;;3.03;;
42682;SDS011;28293;50.930;3.464;2023-07-13T08:46:44;9.45;;;3.38;;
42682;SDS011;28293;50.930;3.464;2023-07-13T08:49:12;9.63;;;2.72;;
42682;SDS011;28293;50.930;3.464;2023-07-13T08:54:17;11.45;;;3.28;;
42682;SDS011;28293;50.930;3.464;2023-07-13T08:57:04;13.00;;;3.50;;
42682;SDS011;28293;50.930;3.464;2023-07-13T08:59:42;10.95;;;3.00;;
42682;SDS011;28293;50.930;3.464;2023-07-13T09:07:32;11.32;;;3.60;;
42682;SDS011;28293;50.930;3.464;2023-07-13T09:10:11;10.98;;;3.45;;
42682;SDS011;28293;50.930;3.464;2023-07-13T09:15:38;11.57;;;3.58;;
42682;SDS011;28293;50.930;3.464;2023-07-13T09:20:57;11.60;;;4.00;;
42682;SDS011;28293;50.930;3.464;2023-07-13T09:23:28;10.20;;;3.65;;
42682;SDS011;28293;50.930;3.464;2023-07-13T09:28:47;8.43;;;3.10;;
42682;SDS011;28293;50.930;3.464;2023-07-13T09:31:24;12.10;;;3.78;;
42682;SDS011;28293;50.930;3.464;2023-07-13T09:33:56;11.25;;;3.20;;
42682;SDS011;28293;50.930;3.464;2023-07-13T09:36:25;10.75;;;3.53;;
42682;SDS011;28293;50.930;3.464;2023-07-13T09:44:38;9.95;;;3.13;;
42682;SDS011;28293;50.930;3.464;2023-07-13T09:47:20;7.55;;;2.78;;
42682;SDS011;28293;50.930;3.464;2023-07-13T09:49:48;13.65;;;3.10;;
42682;SDS011;28293;50.930;3.464;2023-07-13T09:52:21;10.15;;;2.70;;
42682;SDS011;28293;50.930;3.464;2023-07-13T09:54:48;9.57;;;3.00;;
42682;SDS011;28293;50.930;3.464;2023-07-13T09:57:19;10.00;;;3.03;;
42682;SDS011;28293;50.930;3.464;2023-07-13T09:59:49;9.17;;;3.13;;
42682;SDS011;28293;50.930;3.464;2023-07-13T10:04:53;8.23;;;2.60;;
42682;SDS011;28293;50.930;3.464;2023-07-13T10:07:28;10.23;;;2.90;;
42682;SDS011;28293;50.930;3.464;2023-07-13T10:09:55;9.63;;;2.65;;
42682;SDS011;28293;50.930;3.464;2023-07-13T10:12:23;10.70;;;2.60;;
42682;SDS011;28293;50.930;3.464;2023-07-13T10:14:50;7.43;;;2.88;;
42682;SDS011;28293;50.930;3.464;2023-07-13T10:17:19;8.30;;;2.55;;
42682;SDS011;28293;50.930;3.464;2023-07-13T10:20:03;9.50;;;2.47;;
42682;SDS011;28293;50.930;3.464;2023-07-13T10:25:18;7.47;;;2.47;;
42682;SDS011;28293;50.930;3.464;2023-07-13T10:27:56;9.35;;;2.70;;
42682;SDS011;28293;50.930;3.464;2023-07-13T10:30:29;9.63;;;2.40;;
42682;SDS011;28293;50.930;3.464;2023-07-13T10:33:00;9.82;;;2.78;;
42682;SDS011;28293;50.930;3.464;2023-07-13T10:35:28;8.80;;;2.75;;
42682;SDS011;28293;50.930;3.464;2023-07-13T10:38:29;10.23;;;2.70;;
42682;SDS011;28293;50.930;3.464;2023-07-13T10:41:00;10.52;;;3.50;;
42682;SDS011;28293;50.930;3.464;2023-07-13T10:43:33;8.43;;;2.92;;
42682;SDS011;28293;50.930;3.464;2023-07-13T10:46:03;8.13;;;3.22;;
42682;SDS011;28293;50.930;3.464;2023-07-13T10:48:36;8.30;;;2.73;;
42682;SDS011;28293;50.930;3.464;2023-07-13T10:51:05;7.93;;;2.60;;
42682;SDS011;28293;50.930;3.464;2023-07-13T10:53:35;9.45;;;3.28;;
42682;SDS011;28293;50.930;3.464;2023-07-13T10:56:05;6.05;;;2.88;;
42682;SDS011;28293;50.930;3.464;2023-07-13T10:58:45;6.82;;;2.80;;
42682;SDS011;28293;50.930;3.464;2023-07-13T11:01:15;7.03;;;2.80;;
42682;SDS011;28293;50.930;3.464;2023-07-13T11:03:54;8.65;;;2.92;;
42682;SDS011;28293;50.930;3.464;2023-07-13T11:09:17;7.93;;;3.08;;
42682;SDS011;28293;50.930;3.464;2023-07-13T11:11:56;8.32;;;3.35;;
42682;SDS011;28293;50.930;3.464;2023-07-13T11:14:37;6.57;;;2.90;;
42682;SDS011;28293;50.930;3.464;2023-07-13T11:20:08;6.57;;;2.30;;
42682;SDS011;28293;50.930;3.464;2023-07-13T11:27:52;7.60;;;2.63;;
42682;SDS011;28293;50.930;3.464;2023-07-13T11:41:02;8.25;;;3.22;;
42682;SDS011;28293;50.930;3.464;2023-07-13T11:43:38;10.55;;;3.60;;
42682;SDS011;28293;50.930;3.464;2023-07-13T11:46:21;6.03;;;3.08;;
42682;SDS011;28293;50.930;3.464;2023-07-13T11:48:49;6.68;;;3.33;;
42682;SDS011;28293;50.930;3.464;2023-07-13T11:51:24;9.68;;;3.17;;
42682;SDS011;28293;50.930;3.464;2023-07-13T11:54:00;9.85;;;3.40;;
42682;SDS011;28293;50.930;3.464;2023-07-13T11:56:29;10.63;;;3.58;;
42682;SDS011;28293;50.930;3.464;2023-07-13T11:59:02;8.13;;;3.53;;
42682;SDS011;28293;50.930;3.464;2023-07-13T12:01:31;9.50;;;3.15;;
42682;SDS011;28293;50.930;3.464;2023-07-13T12:04:01;10.02;;;3.03;;
42682;SDS011;28293;50.930;3.464;2023-07-13T12:06:30;9.05;;;3.55;;
42682;SDS011;28293;50.930;3.464;2023-07-13T12:08:58;12.60;;;3.97;;
42682;SDS011;28293;50.930;3.464;2023-07-13T12:11:25;6.68;;;2.40;;
42682;SDS011;28293;50.930;3.464;2023-07-13T12:13:52;9.02;;;2.63;;
42682;SDS011;28293;50.930;3.464;2023-07-13T12:16:29;7.13;;;3.05;;
42682;SDS011;28293;50.930;3.464;2023-07-13T12:18:57;8.10;;;2.70;;
42682;SDS011;28293;50.930;3.464;2023-07-13T12:21:32;7.75;;;2.35;;
42682;SDS011;28293;50.930;3.464;2023-07-13T12:24:04;5.53;;;2.28;;
42682;SDS011;28293;50.930;3.464;2023-07-13T12:26:38;8.43;;;2.33;;
42682;SDS011;28293;50.930;3.464;2023-07-13T12:29:04;7.10;;;2.28;;
42682;SDS011;28293;50.930;3.464;2023-07-13T12:31:36;7.85;;;2.38;;
42682;SDS011;28293;50.930;3.464;2023-07-13T12:36:46;4.88;;;1.98;;
42682;SDS011;28293;50.930;3.464;2023-07-13T12:39:37;6.30;;;2.60;;
42682;SDS011;28293;50.930;3.464;2023-07-13T12:44:42;6.63;;;2.30;;
42682;SDS011;28293;50.930;3.464;2023-07-13T12:47:09;5.25;;;2.30;;
42682;SDS011;28293;50.930;3.464;2023-07-13T12:49:42;6.53;;;2.45;;
42682;SDS011;28293;50.930;3.464;2023-07-13T12:54:40;7.30;;;2.25;;
42682;SDS011;28293;50.930;3.464;2023-07-13T12:57:07;6.35;;;2.30;;
42682;SDS011;28293;50.930;3.464;2023-07-13T12:59:41;7.78;;;2.15;;
42682;SDS011;28293;50.930;3.464;2023-07-13T13:02:29;5.90;;;1.95;;
42682;SDS011;28293;50.930;3.464;2023-07-13T13:04:57;5.38;;;1.65;;
42682;SDS011;28293;50.930;3.464;2023-07-13T13:07:24;4.65;;;1.88;;
42682;SDS011;28293;50.930;3.464;2023-07-13T13:09:51;5.57;;;2.20;;
42682;SDS011;28293;50.930;3.464;2023-07-13T13:12:18;9.70;;;2.40;;
42682;SDS011;28293;50.930;3.464;2023-07-13T13:14:44;5.82;;;2.35;;
42682;SDS011;28293;50.930;3.464;2023-07-13T13:17:29;7.55;;;1.90;;
42682;SDS011;28293;50.930;3.464;2023-07-13T13:19:56;6.07;;;2.10;;
42682;SDS011;28293;50.930;3.464;2023-07-13T13:22:22;5.65;;;2.15;;
42682;SDS011;28293;50.930;3.464;2023-07-13T13:24:48;5.63;;;1.85;;
42682;SDS011;28293;50.930;3.464;2023-07-13T13:27:17;6.35;;;2.03;;
42682;SDS011;28293;50.930;3.464;2023-07-13T13:29:46;7.93;;;1.95;;
42682;SDS011;28293;50.930;3.464;2023-07-13T13:32:12;5.80;;;1.80;;
42682;SDS011;28293;50.930;3.464;2023-07-13T13:34:39;6.07;;;2.25;;
42682;SDS011;28293;50.930;3.464;2023-07-13T13:37:26;4.20;;;1.77;;
42682;SDS011;28293;50.930;3.464;2023-07-13T13:39:51;5.45;;;2.20;;
42682;SDS011;28293;50.930;3.464;2023-07-13T13:42:18;8.60;;;2.42;;
42682;SDS011;28293;50.930;3.464;2023-07-13T13:44:46;6.05;;;2.30;;
42682;SDS011;28293;50.930;3.464;2023-07-13T13:47:25;6.07;;;2.20;;
42682;SDS011;28293;50.930;3.464;2023-07-13T13:49:55;7.82;;;2.65;;
42682;SDS011;28293;50.930;3.464;2023-07-13T13:52:21;5.47;;;2.33;;
42682;SDS011;28293;50.930;3.464;2023-07-13T13:54:46;5.93;;;1.75;;
42682;SDS011;28293;50.930;3.464;2023-07-13T13:57:12;5.28;;;1.90;;
42682;SDS011;28293;50.930;3.464;2023-07-13T13:59:39;5.95;;;2.03;;
42682;SDS011;28293;50.930;3.464;2023-07-13T14:05:01;5.03;;;1.85;;
42682;SDS011;28293;50.930;3.464;2023-07-13T14:07:28;6.50;;;2.03;;
42682;SDS011;28293;50.930;3.464;2023-07-13T14:09:58;4.43;;;2.03;;
42682;SDS011;28293;50.930;3.464;2023-07-13T14:12:25;5.85;;;1.75;;
42682;SDS011;28293;50.930;3.464;2023-07-13T14:14:53;4.40;;;1.63;;
42682;SDS011;28293;50.930;3.464;2023-07-13T14:17:21;5.38;;;1.90;;
42682;SDS011;28293;50.930;3.464;2023-07-13T14:19:52;4.82;;;1.73;;
42682;SDS011;28293;50.930;3.464;2023-07-13T14:22:22;3.78;;;1.58;;
42682;SDS011;28293;50.930;3.464;2023-07-13T14:24:49;4.95;;;1.88;;
42682;SDS011;28293;50.930;3.464;2023-07-13T14:27:16;7.03;;;1.90;;
42682;SDS011;28293;50.930;3.464;2023-07-13T14:29:42;4.50;;;1.85;;
42682;SDS011;28293;50.930;3.464;2023-07-13T14:32:11;5.47;;;1.90;;
42682;SDS011;28293;50.930;3.464;2023-07-13T14:34:37;5.70;;;1.95;;
42682;SDS011;28293;50.930;3.464;2023-07-13T14:37:03;5.38;;;2.05;;
42682;SDS011;28293;50.930;3.464;2023-07-13T14:39:30;6.55;;;1.70;;
42682;SDS011;28293;50.930;3.464;2023-07-13T14:41:57;9.02;;;2.10;;
42682;SDS011;28293;50.930;3.464;2023-07-13T14:44:27;5.68;;;2.33;;
42682;SDS011;28293;50.930;3.464;2023-07-13T14:46:54;5.22;;;1.63;;
42682;SDS011;28293;50.930;3.464;2023-07-13T14:49:34;5.65;;;2.00;;
42682;SDS011;28293;50.930;3.464;2023-07-13T14:52:13;5.40;;;1.85;;
42682;SDS011;28293;50.930;3.464;2023-07-13T14:54:41;5.93;;;2.08;;
42682;SDS011;28293;50.930;3.464;2023-07-13T14:57:12;5.47;;;1.88;;
42682;SDS011;28293;50.930;3.464;2023-07-13T14:59:39;4.47;;;1.60;;
42682;SDS011;28293;50.930;3.464;2023-07-13T15:04:57;4.82;;;1.95;;
42682;SDS011;28293;50.930;3.464;2023-07-13T15:07:23;4.70;;;1.80;;
42682;SDS011;28293;50.930;3.464;2023-07-13T15:09:49;5.53;;;2.10;;
42682;SDS011;28293;50.930;3.464;2023-07-13T15:12:16;7.53;;;2.10;;
42682;SDS011;28293;50.930;3.464;2023-07-13T15:14:42;5.20;;;2.10;;
42682;SDS011;28293;50.930;3.464;2023-07-13T15:19:56;4.97;;;1.60;;
42682;SDS011;28293;50.930;3.464;2023-07-13T15:22:22;5.30;;;1.90;;
42682;SDS011;28293;50.930;3.464;2023-07-13T15:24:49;4.78;;;2.20;;
42682;SDS011;28293;50.930;3.464;2023-07-13T15:27:14;4.15;;;1.85;;
42682;SDS011;28293;50.930;3.464;2023-07-13T15:29:40;4.80;;;1.90;;
42682;SDS011;28293;50.930;3.464;2023-07-13T15:32:16;5.68;;;1.98;;
42682;SDS011;28293;50.930;3.464;2023-07-13T15:34:44;6.95;;;1.90;;
42682;SDS011;28293;50.930;3.464;2023-07-13T15:37:14;4.05;;;1.90;;
42682;SDS011;28293;50.930;3.464;2023-07-13T15:39:41;6.22;;;2.42;;
42682;SDS011;28293;50.930;3.464;2023-07-13T15:42:16;4.18;;;1.60;;
42682;SDS011;28293;50.930;3.464;2023-07-13T15:44:44;7.18;;;1.92;;
42682;SDS011;28293;50.930;3.464;2023-07-13T15:47:13;5.20;;;2.40;;
42682;SDS011;28293;50.930;3.464;2023-07-13T15:49:40;2.70;;;1.50;;
42682;SDS011;28293;50.930;3.464;2023-07-13T15:52:13;6.45;;;2.00;;
42682;SDS011;28293;50.930;3.464;2023-07-13T15:54:46;6.20;;;1.90;;
42682;SDS011;28293;50.930;3.464;2023-07-13T15:57:13;6.60;;;2.15;;
42682;SDS011;28293;50.930;3.464;2023-07-13T15:59:40;6.43;;;2.28;;